Time;durP1;ratioP1;P1;durP2;ratioP2;P2;SDS_P1;SDS_P2;PMS_P1;PMS_P2;Temp;Humidity;BMP_temperature;BMP_pressure;BME280_temperature;BME280_humidity;BME280_pressure;Samples;Min_cycle;Max_cycle;Signal;HPM_P1;HPM_P2
2023/08/31 00:00:25;;;;;;;2.70;2.20;;;;;;;;;;5018803;28;20046;-91
2023/08/31 00:02:54;;;;;;;3.97;2.45;;;;;;;;;;5002218;28;20030;-92
2023/08/31 00:05:22;;;;;;;3.78;2.22;;;;;;;;;;5019037;28;20031;-92
2023/08/31 00:07:49;;;;;;;3.38;2.25;;;;;;;;;;5018228;28;20056;-91
2023/08/31 00:10:17;;;;;;;8.15;2.90;;;;;;;;;;5018621;28;20034;-91
2023/08/31 00:12:46;;;;;;;4.32;2.70;;;;;;;;;;5018100;28;20049;-92
2023/08/31 00:15:14;;;;;;;3.15;2.08;;;;;;;;;;5018376;28;20053;-92
2023/08/31 00:17:42;;;;;;;2.45;2.20;;;;;;;;;;5017933;28;20026;-92
2023/08/31 00:20:12;;;;;;;4.10;2.30;;;;;;;;;;5017987;28;20026;-93
2023/08/31 00:22:40;;;;;;;2.95;2.13;;;;;;;;;;5019279;28;20046;-91
2023/08/31 00:25:09;;;;;;;2.45;2.05;;;;;;;;;;5025256;28;20048;-91
2023/08/31 00:27:38;;;;;;;3.10;2.42;;;;;;;;;;5025088;28;20229;-93
2023/08/31 00:30:07;;;;;;;4.03;3.17;;;;;;;;;;5016611;28;20054;-93
2023/08/31 00:32:35;;;;;;;3.47;1.95;;;;;;;;;;5025994;28;20045;-94
2023/08/31 00:35:05;;;;;;;3.80;2.60;;;;;;;;;;5000553;28;20046;-92
2023/08/31 00:37:37;;;;;;;3.05;2.50;;;;;;;;;;5032713;28;20242;-93
2023/08/31 00:40:07;;;;;;;4.72;2.72;;;;;;;;;;5032425;28;20042;-93
2023/08/31 00:42:34;;;;;;;5.10;2.25;;;;;;;;;;5032800;28;20361;-94
2023/08/31 00:45:04;;;;;;;5.30;2.42;;;;;;;;;;5033276;28;20024;-93
2023/08/31 00:47:31;;;;;;;2.28;2.03;;;;;;;;;;5016632;28;20026;-93
2023/08/31 00:50:03;;;;;;;3.25;2.53;;;;;;;;;;5028803;28;20023;-94
2023/08/31 00:52:35;;;;;;;4.30;3.15;;;;;;;;;;5041451;28;20044;-91
2023/08/31 00:55:08;;;;;;;3.08;2.60;;;;;;;;;;5016773;28;20054;-94
2023/08/31 00:57:35;;;;;;;4.60;2.50;;;;;;;;;;5041070;28;20056;-95
2023/08/31 01:00:03;;;;;;;4.65;2.58;;;;;;;;;;5016954;28;20037;-93
2023/08/31 01:02:34;;;;;;;3.08;2.40;;;;;;;;;;5033000;28;20023;-92
2023/08/31 01:05:08;;;;;;;4.70;2.92;;;;;;;;;;5009536;28;20042;-93
2023/08/31 01:07:42;;;;;;;3.85;2.92;;;;;;;;;;5015690;28;20230;-93
2023/08/31 01:10:19;;;;;;;5.20;3.00;;;;;;;;;;5031807;28;20041;-92
2023/08/31 01:12:51;;;;;;;4.63;2.58;;;;;;;;;;5015456;28;20046;-93
2023/08/31 01:15:19;;;;;;;3.22;2.88;;;;;;;;;;5031923;28;20042;-94
2023/08/31 01:17:51;;;;;;;4.80;2.53;;;;;;;;;;5015657;28;20049;-93
2023/08/31 01:20:40;;;;;;;14.40;3.83;;;;;;;;;;5015409;28;20046;-92
2023/08/31 01:23:12;;;;;;;3.80;2.75;;;;;;;;;;5008726;28;20050;-92
2023/08/31 01:25:42;;;;;;;3.08;2.67;;;;;;;;;;5016533;28;20052;-92
2023/08/31 01:28:11;;;;;;;3.80;2.03;;;;;;;;;;4999966;28;20040;-92
2023/08/31 01:30:41;;;;;;;5.30;3.72;;;;;;;;;;5032540;28;20230;-92
2023/08/31 01:33:09;;;;;;;3.22;2.45;;;;;;;;;;5032672;28;20023;-92
2023/08/31 01:35:43;;;;;;;4.05;2.38;;;;;;;;;;5016687;28;20034;-93
2023/08/31 01:38:11;;;;;;;3.42;2.85;;;;;;;;;;5015775;28;20041;-93
2023/08/31 01:40:44;;;;;;;5.53;3.40;;;;;;;;;;5031864;28;20028;-93
2023/08/31 01:43:12;;;;;;;3.15;2.47;;;;;;;;;;5016519;28;20057;-92
2023/08/31 01:45:41;;;;;;;2.55;2.20;;;;;;;;;;5017045;28;20052;-92
2023/08/31 01:48:09;;;;;;;3.75;2.85;;;;;;;;;;5023341;28;20030;-94
2023/08/31 01:50:37;;;;;;;2.38;1.90;;;;;;;;;;5032382;28;20042;-93
2023/08/31 01:53:08;;;;;;;3.72;2.78;;;;;;;;;;5008903;28;20033;-94
2023/08/31 01:55:38;;;;;;;4.18;2.92;;;;;;;;;;5016009;28;20038;-93
2023/08/31 01:58:07;;;;;;;11.95;3.17;;;;;;;;;;5016214;28;20053;-93
2023/08/31 02:00:38;;;;;;;5.13;3.72;;;;;;;;;;5016668;28;20034;-93
2023/08/31 02:03:06;;;;;;;4.93;3.53;;;;;;;;;;5016744;28;20047;-94
2023/08/31 02:05:33;;;;;;;9.30;3.70;;;;;;;;;;5016916;28;20036;-92
2023/08/31 02:08:00;;;;;;;8.93;4.10;;;;;;;;;;4999886;28;20052;-92
2023/08/31 02:10:29;;;;;;;4.97;4.47;;;;;;;;;;5015837;28;20040;-93
2023/08/31 02:13:01;;;;;;;5.82;4.28;;;;;;;;;;5032122;28;20061;-93
2023/08/31 02:15:30;;;;;;;6.55;4.22;;;;;;;;;;5032570;28;20049;-93
2023/08/31 02:18:00;;;;;;;5.63;4.13;;;;;;;;;;5015832;28;20041;-92
2023/08/31 02:20:27;;;;;;;6.05;4.90;;;;;;;;;;5016464;28;20042;-95
2023/08/31 02:22:55;;;;;;;5.07;3.90;;;;;;;;;;5024203;28;20044;-94
2023/08/31 02:25:27;;;;;;;5.10;4.60;;;;;;;;;;4999940;28;20030;-94
2023/08/31 02:27:58;;;;;;;5.05;4.55;;;;;;;;;;5016649;28;20047;-92
2023/08/31 02:30:25;;;;;;;5.90;4.00;;;;;;;;;;5032264;28;20038;-92
2023/08/31 02:32:54;;;;;;;4.88;4.38;;;;;;;;;;5016565;28;20029;-92
2023/08/31 02:35:23;;;;;;;5.97;5.45;;;;;;;;;;5021751;28;20040;-92
2023/08/31 02:37:53;;;;;;;8.88;4.65;;;;;;;;;;5033776;28;20022;-92
2023/08/31 02:40:21;;;;;;;5.00;4.50;;;;;;;;;;5016244;28;20026;-94
2023/08/31 02:42:52;;;;;;;5.55;4.18;;;;;;;;;;5016112;28;20030;-93
2023/08/31 02:45:19;;;;;;;5.55;4.28;;;;;;;;;;5016578;28;20022;-94
2023/08/31 02:47:47;;;;;;;5.00;4.60;;;;;;;;;;5032255;28;20034;-92
2023/08/31 02:50:18;;;;;;;8.75;5.05;;;;;;;;;;5031127;28;20023;-92
2023/08/31 02:52:48;;;;;;;4.85;4.28;;;;;;;;;;5016232;28;20225;-94
2023/08/31 02:55:16;;;;;;;6.07;4.95;;;;;;;;;;5047677;28;20038;-93
2023/08/31 02:57:43;;;;;;;5.40;4.35;;;;;;;;;;5024082;28;20049;-93
2023/08/31 03:00:14;;;;;;;5.45;4.95;;;;;;;;;;5009632;28;20035;-93
2023/08/31 03:02:43;;;;;;;6.07;5.55;;;;;;;;;;5019626;28;20040;-92
2023/08/31 03:05:11;;;;;;;17.58;5.53;;;;;;;;;;5035782;28;20042;-92
2023/08/31 03:07:40;;;;;;;6.47;5.72;;;;;;;;;;5038883;28;20049;-93
2023/08/31 03:10:08;;;;;;;10.27;5.97;;;;;;;;;;5035392;28;20050;-94
2023/08/31 03:12:40;;;;;;;5.93;5.20;;;;;;;;;;5035175;28;20042;-93
2023/08/31 03:15:12;;;;;;;6.72;4.80;;;;;;;;;;5019153;28;20034;-94
2023/08/31 03:17:40;;;;;;;6.63;4.95;;;;;;;;;;5034481;28;20045;-92
2023/08/31 03:20:09;;;;;;;12.80;5.47;;;;;;;;;;5022635;28;20022;-95
2023/08/31 03:22:37;;;;;;;7.53;5.05;;;;;;;;;;5024162;28;20030;-92
2023/08/31 03:25:09;;;;;;;5.55;4.53;;;;;;;;;;5019087;28;20042;-92
2023/08/31 03:27:36;;;;;;;5.57;4.10;;;;;;;;;;5035227;28;20053;-93
2023/08/31 03:30:10;;;;;;;6.63;4.93;;;;;;;;;;5019135;28;20046;-92
2023/08/31 03:32:37;;;;;;;5.72;5.18;;;;;;;;;;5019601;28;20030;-94
2023/08/31 03:35:07;;;;;;;6.68;4.85;;;;;;;;;;5019234;28;20038;-93
2023/08/31 03:37:36;;;;;;;10.88;5.82;;;;;;;;;;5019486;28;20047;-92
2023/08/31 03:40:06;;;;;;;6.00;5.47;;;;;;;;;;5018625;28;20034;-93
2023/08/31 03:42:35;;;;;;;6.68;4.38;;;;;;;;;;5035038;28;20028;-93
2023/08/31 03:45:05;;;;;;;7.15;5.63;;;;;;;;;;5019282;28;20089;-92
2023/08/31 03:47:33;;;;;;;4.78;4.10;;;;;;;;;;5034946;28;20042;-92
2023/08/31 03:50:00;;;;;;;5.15;4.65;;;;;;;;;;5034709;28;20115;-93
2023/08/31 03:52:27;;;;;;;4.50;4.10;;;;;;;;;;5019171;28;20022;-94
2023/08/31 03:54:55;;;;;;;5.10;4.60;;;;;;;;;;5018104;28;20042;-92
2023/08/31 03:57:25;;;;;;;8.55;4.47;;;;;;;;;;5026696;28;20018;-94
2023/08/31 04:00:02;;;;;;;5.82;4.82;;;;;;;;;;5034564;28;20097;-93
2023/08/31 04:02:43;;;;;;;4.53;4.00;;;;;;;;;;5019085;28;20042;-92
2023/08/31 04:05:15;;;;;;;5.35;4.15;;;;;;;;;;5017977;28;20038;-94
2023/08/31 04:07:44;;;;;;;6.45;4.68;;;;;;;;;;5034579;28;20056;-93
2023/08/31 04:10:11;;;;;;;6.60;5.45;;;;;;;;;;5017823;28;20033;-93
2023/08/31 04:12:42;;;;;;;5.97;5.05;;;;;;;;;;5027087;28;20046;-92
2023/08/31 04:15:13;;;;;;;7.50;5.30;;;;;;;;;;5010244;28;20123;-93
2023/08/31 04:17:40;;;;;;;5.97;5.38;;;;;;;;;;5018703;28;20045;-93
2023/08/31 04:20:08;;;;;;;8.38;6.13;;;;;;;;;;5017970;28;20042;-94
2023/08/31 04:22:36;;;;;;;5.03;4.53;;;;;;;;;;5018757;28;20027;-93
2023/08/31 04:25:04;;;;;;;7.45;5.57;;;;;;;;;;5018715;28;20037;-93
2023/08/31 04:27:32;;;;;;;6.38;5.10;;;;;;;;;;5018480;28;20031;-92
2023/08/31 04:29:59;;;;;;;5.70;4.97;;;;;;;;;;5018099;28;20030;-92
2023/08/31 04:32:32;;;;;;;5.55;4.70;;;;;;;;;;5028181;28;20022;-93
2023/08/31 04:34:59;;;;;;;5.43;4.47;;;;;;;;;;5037569;22;20042;-85
2023/08/31 04:37:30;;;;;;;4.95;4.45;;;;;;;;;;5001055;28;20046;-84
2023/08/31 04:40:00;;;;;;;9.73;5.38;;;;;;;;;;5010012;28;20065;-84
2023/08/31 04:42:30;;;;;;;7.97;6.25;;;;;;;;;;5004723;28;20046;-84
2023/08/31 04:44:58;;;;;;;6.50;5.47;;;;;;;;;;4992222;28;20531;-84
2023/08/31 04:47:25;;;;;;;8.73;5.38;;;;;;;;;;5001680;28;20050;-82
2023/08/31 04:49:57;;;;;;;6.47;5.22;;;;;;;;;;5000265;28;20050;-82
2023/08/31 04:52:24;;;;;;;8.90;5.70;;;;;;;;;;4983959;28;20389;-81
2023/08/31 04:54:54;;;;;;;7.82;5.57;;;;;;;;;;4992340;28;20061;-81
2023/08/31 04:57:24;;;;;;;12.18;6.25;;;;;;;;;;4980615;28;20409;-81
2023/08/31 04:59:51;;;;;;;7.28;5.65;;;;;;;;;;4995755;28;20069;-81
2023/08/31 05:02:20;;;;;;;6.15;5.53;;;;;;;;;;4992850;28;20503;-81
2023/08/31 05:04:48;;;;;;;5.57;5.05;;;;;;;;;;5001055;28;20058;-81
2023/08/31 05:07:17;;;;;;;5.80;4.93;;;;;;;;;;5001324;28;20061;-81
2023/08/31 05:09:44;;;;;;;6.63;5.55;;;;;;;;;;4992181;28;20055;-81
2023/08/31 05:12:11;;;;;;;7.18;5.38;;;;;;;;;;4985219;28;20049;-81
2023/08/31 05:14:39;;;;;;;6.22;3.97;;;;;;;;;;4993021;28;20050;-81
2023/08/31 05:17:07;;;;;;;5.63;5.07;;;;;;;;;;5002308;28;20054;-81
2023/08/31 05:19:34;;;;;;;6.03;4.68;;;;;;;;;;4998445;28;20042;-81
2023/08/31 05:22:01;;;;;;;8.00;6.05;;;;;;;;;;4995121;28;20412;-81
2023/08/31 05:24:30;;;;;;;6.72;4.95;;;;;;;;;;4988301;28;20055;-82
2023/08/31 05:26:57;;;;;;;5.00;4.47;;;;;;;;;;4990467;28;20053;-82
2023/08/31 05:29:24;;;;;;;7.28;5.55;;;;;;;;;;4982343;28;20059;-82
2023/08/31 05:31:52;;;;;;;6.13;5.00;;;;;;;;;;4987572;28;20069;-82
2023/08/31 05:34:23;;;;;;;7.70;4.47;;;;;;;;;;4993233;28;20049;-82
2023/08/31 05:36:50;;;;;;;5.97;4.32;;;;;;;;;;4993098;28;20046;-82
2023/08/31 05:39:17;;;;;;;6.95;4.53;;;;;;;;;;4993404;28;20057;-82
2023/08/31 05:41:46;;;;;;;6.30;4.43;;;;;;;;;;4991675;28;20050;-82
2023/08/31 05:44:13;;;;;;;5.85;4.60;;;;;;;;;;4983966;28;20386;-82
2023/08/31 05:46:43;;;;;;;5.10;4.30;;;;;;;;;;5000577;28;20038;-82
2023/08/31 05:49:12;;;;;;;6.28;5.68;;;;;;;;;;4992140;28;20404;-82
2023/08/31 05:51:46;;;;;;;4.55;4.15;;;;;;;;;;4992460;28;20046;-82
2023/08/31 05:54:14;;;;;;;5.32;3.63;;;;;;;;;;5000848;28;20054;-82
2023/08/31 05:56:41;;;;;;;6.85;4.22;;;;;;;;;;4991819;28;20050;-82
2023/08/31 05:59:10;;;;;;;7.10;4.13;;;;;;;;;;4991237;28;20069;-82
2023/08/31 06:01:37;;;;;;;5.78;3.88;;;;;;;;;;4992487;28;20065;-82
2023/08/31 06:04:09;;;;;;;4.43;3.35;;;;;;;;;;4992311;28;20042;-82
2023/08/31 06:06:37;;;;;;;6.05;3.58;;;;;;;;;;4983129;28;20409;-82
2023/08/31 06:09:06;;;;;;;7.07;3.60;;;;;;;;;;4982151;28;20405;-82
2023/08/31 06:11:35;;;;;;;4.47;3.30;;;;;;;;;;4985399;28;20081;-82
2023/08/31 06:14:08;;;;;;;4.83;3.43;;;;;;;;;;4974630;28;20061;-82
2023/08/31 06:16:36;;;;;;;4.43;3.22;;;;;;;;;;4991121;28;20054;-82
2023/08/31 06:19:06;;;;;;;7.15;3.22;;;;;;;;;;4992125;28;20057;-82
2023/08/31 06:21:35;;;;;;;5.28;3.53;;;;;;;;;;4974867;28;20062;-82
2023/08/31 06:24:03;;;;;;;5.05;3.85;;;;;;;;;;4992156;28;20053;-82
2023/08/31 06:26:33;;;;;;;5.55;3.88;;;;;;;;;;4983115;28;20525;-82
2023/08/31 06:29:03;;;;;;;6.00;3.65;;;;;;;;;;4991358;28;20061;-82
2023/08/31 06:31:30;;;;;;;5.45;3.50;;;;;;;;;;4983705;28;20054;-82
2023/08/31 06:34:02;;;;;;;4.28;3.28;;;;;;;;;;4992594;28;20131;-82
2023/08/31 06:36:29;;;;;;;5.35;3.50;;;;;;;;;;4995113;28;20520;-82
2023/08/31 06:39:01;;;;;;;4.15;3.20;;;;;;;;;;4997006;28;20051;-82
2023/08/31 06:41:28;;;;;;;5.22;3.60;;;;;;;;;;4991433;28;20062;-82
2023/08/31 06:43:55;;;;;;;7.57;3.17;;;;;;;;;;4991142;28;20493;-82
2023/08/31 06:46:25;;;;;;;4.00;2.67;;;;;;;;;;4994753;28;20054;-82
2023/08/31 06:48:55;;;;;;;3.70;2.60;;;;;;;;;;4994720;28;20061;-82
2023/08/31 06:51:26;;;;;;;7.45;2.85;;;;;;;;;;4995769;28;20061;-82
2023/08/31 06:53:53;;;;;;;2.80;2.45;;;;;;;;;;4996390;28;20050;-82
2023/08/31 06:56:20;;;;;;;4.07;3.03;;;;;;;;;;4996074;28;20053;-82
2023/08/31 06:58:47;;;;;;;3.80;2.70;;;;;;;;;;4999727;28;20053;-82
2023/08/31 07:01:17;;;;;;;4.47;2.35;;;;;;;;;;5011078;28;20030;-82
2023/08/31 07:03:46;;;;;;;5.00;2.35;;;;;;;;;;5010582;28;20037;-82
2023/08/31 07:06:14;;;;;;;2.50;2.00;;;;;;;;;;5010912;28;20042;-82
2023/08/31 07:08:45;;;;;;;2.90;2.60;;;;;;;;;;5017546;28;20050;-82
2023/08/31 07:11:12;;;;;;;4.60;3.63;;;;;;;;;;5001198;28;20077;-83
2023/08/31 07:13:42;;;;;;;3.13;2.58;;;;;;;;;;4947884;28;20054;-82
2023/08/31 07:16:11;;;;;;;7.72;2.50;;;;;;;;;;4986136;28;20049;-82
2023/08/31 07:18:41;;;;;;;2.92;2.30;;;;;;;;;;5001854;28;20058;-82
2023/08/31 07:21:08;;;;;;;3.70;2.22;;;;;;;;;;5001830;28;20516;-82
2023/08/31 07:23:35;;;;;;;2.95;1.95;;;;;;;;;;4986231;28;20046;-82
2023/08/31 07:26:06;;;;;;;4.57;2.10;;;;;;;;;;4995141;28;20053;-82
2023/08/31 07:28:36;;;;;;;2.83;2.25;;;;;;;;;;4993881;28;20058;-82
2023/08/31 07:31:08;;;;;;;3.00;1.67;;;;;;;;;;4994745;28;20058;-82
2023/08/31 07:33:38;;;;;;;2.95;1.67;;;;;;;;;;4993599;28;20046;-82
2023/08/31 07:36:08;;;;;;;2.63;1.73;;;;;;;;;;4993772;28;20057;-82
2023/08/31 07:38:35;;;;;;;9.27;2.92;;;;;;;;;;4994088;28;20049;-82
2023/08/31 07:41:08;;;;;;;4.20;2.70;;;;;;;;;;5002641;28;20440;-82
2023/08/31 07:43:38;;;;;;;3.10;2.78;;;;;;;;;;4987243;28;20073;-82
2023/08/31 07:46:06;;;;;;;2.95;2.08;;;;;;;;;;4993070;28;20058;-82
2023/08/31 07:48:33;;;;;;;2.55;1.80;;;;;;;;;;4994674;28;20050;-82
2023/08/31 07:51:03;;;;;;;2.50;1.73;;;;;;;;;;4993613;28;20420;-82
2023/08/31 07:53:30;;;;;;;3.08;2.13;;;;;;;;;;4990842;28;20057;-82
2023/08/31 07:55:57;;;;;;;4.82;2.22;;;;;;;;;;4988131;28;20046;-82
2023/08/31 07:58:31;;;;;;;1.83;1.67;;;;;;;;;;5002745;28;20060;-82
2023/08/31 08:01:00;;;;;;;2.70;2.28;;;;;;;;;;4994461;28;20054;-82
2023/08/31 08:03:35;;;;;;;3.50;1.60;;;;;;;;;;4993476;28;20055;-82
2023/08/31 08:06:02;;;;;;;3.45;2.53;;;;;;;;;;4994657;28;20050;-82
2023/08/31 08:08:32;;;;;;;10.32;2.33;;;;;;;;;;4993483;28;20054;-82
2023/08/31 08:11:00;;;;;;;2.45;1.65;;;;;;;;;;4994332;28;20046;-82
2023/08/31 08:13:31;;;;;;;3.08;2.22;;;;;;;;;;4993085;28;20054;-82
2023/08/31 08:15:58;;;;;;;2.25;2.05;;;;;;;;;;4985535;28;20079;-83
2023/08/31 08:18:26;;;;;;;4.15;1.58;;;;;;;;;;4986391;28;20046;-82
2023/08/31 08:20:53;;;;;;;2.70;1.90;;;;;;;;;;4987562;28;20047;-82
2023/08/31 08:23:23;;;;;;;2.10;1.65;;;;;;;;;;4992495;28;20061;-82
2023/08/31 08:25:52;;;;;;;6.18;3.28;;;;;;;;;;4999194;28;20053;-82
2023/08/31 08:28:20;;;;;;;3.67;1.83;;;;;;;;;;4984849;28;20042;-82
2023/08/31 08:30:51;;;;;;;2.85;1.67;;;;;;;;;;4994280;28;20061;-82
2023/08/31 08:33:18;;;;;;;6.38;2.72;;;;;;;;;;4986145;28;20146;-82
2023/08/31 08:35:45;;;;;;;3.35;2.13;;;;;;;;;;4994201;28;20575;-82
2023/08/31 08:38:15;;;;;;;4.40;1.70;;;;;;;;;;4992596;28;20405;-82
2023/08/31 08:40:45;;;;;;;3.55;2.15;;;;;;;;;;4992589;28;20049;-82
2023/08/31 08:43:14;;;;;;;3.60;2.33;;;;;;;;;;4994024;28;20074;-82
2023/08/31 08:45:46;;;;;;;3.15;1.73;;;;;;;;;;4993914;28;20428;-82
2023/08/31 08:48:16;;;;;;;2.03;1.35;;;;;;;;;;4992725;28;20401;-82
2023/08/31 08:50:43;;;;;;;2.20;1.75;;;;;;;;;;4985938;28;20047;-83
2023/08/31 08:53:13;;;;;;;5.43;2.38;;;;;;;;;;4985870;28;20062;-83
2023/08/31 08:55:41;;;;;;;2.38;1.73;;;;;;;;;;5001489;28;20038;-83
2023/08/31 08:58:23;;;;;;;4.57;2.03;;;;;;;;;;4993090;28;20038;-82
2023/08/31 09:00:51;;;;;;;3.95;2.80;;;;;;;;;;4976504;28;20054;-83
2023/08/31 09:03:20;;;;;;;2.63;2.22;;;;;;;;;;4976539;28;20050;-83
2023/08/31 09:05:47;;;;;;;1.60;1.50;;;;;;;;;;4993692;28;20038;-83
2023/08/31 09:08:16;;;;;;;3.95;2.05;;;;;;;;;;4976586;28;20049;-82
2023/08/31 09:10:44;;;;;;;2.50;1.63;;;;;;;;;;4993595;28;20050;-83
2023/08/31 09:13:12;;;;;;;3.78;1.75;;;;;;;;;;4976783;28;20054;-83
2023/08/31 09:15:41;;;;;;;4.93;2.17;;;;;;;;;;4992414;28;20050;-83
2023/08/31 09:18:09;;;;;;;4.10;2.00;;;;;;;;;;4992438;28;20054;-83
2023/08/31 09:20:47;;;;;;;5.30;2.38;;;;;;;;;;4992209;28;20050;-82
2023/08/31 09:23:17;;;;;;;3.53;1.90;;;;;;;;;;4992443;28;20050;-83
2023/08/31 09:25:53;;;;;;;2.83;1.73;;;;;;;;;;4992474;28;20078;-82
2023/08/31 09:28:22;;;;;;;4.43;2.40;;;;;;;;;;4985631;28;20057;-82
2023/08/31 09:30:52;;;;;;;3.55;2.90;;;;;;;;;;4968555;28;20046;-82
2023/08/31 09:33:22;;;;;;;6.85;2.15;;;;;;;;;;5001659;28;20389;-82
2023/08/31 09:35:53;;;;;;;2.90;1.75;;;;;;;;;;4975598;28;20058;-83
2023/08/31 09:38:22;;;;;;;2.45;1.67;;;;;;;;;;4992166;28;20050;-82
2023/08/31 09:40:49;;;;;;;2.80;1.60;;;;;;;;;;4975509;28;20050;-83
2023/08/31 09:43:21;;;;;;;2.78;1.48;;;;;;;;;;4992294;28;20061;-83
2023/08/31 09:45:50;;;;;;;3.88;2.08;;;;;;;;;;4976115;28;20050;-82
2023/08/31 09:48:18;;;;;;;2.45;1.85;;;;;;;;;;4993528;28;20042;-82
2023/08/31 09:50:55;;;;;;;3.28;2.40;;;;;;;;;;4984274;28;20061;-82
2023/08/31 09:53:25;;;;;;;5.53;2.00;;;;;;;;;;5000440;28;20049;-82
2023/08/31 09:55:53;;;;;;;2.65;2.20;;;;;;;;;;4992213;28;20054;-82
2023/08/31 09:58:24;;;;;;;2.60;1.70;;;;;;;;;;5000442;28;20035;-82
2023/08/31 10:00:56;;;;;;;2.35;1.58;;;;;;;;;;4975710;28;20489;-82
2023/08/31 10:03:27;;;;;;;6.90;2.17;;;;;;;;;;4975731;28;20516;-82
2023/08/31 10:05:56;;;;;;;4.53;2.17;;;;;;;;;;4992001;28;20050;-82
2023/08/31 10:08:24;;;;;;;4.13;2.80;;;;;;;;;;4975788;28;20051;-82
2023/08/31 10:10:54;;;;;;;2.25;1.65;;;;;;;;;;4995594;28;20051;-82
2023/08/31 10:13:24;;;;;;;2.60;1.65;;;;;;;;;;4995711;28;20053;-82
2023/08/31 10:15:54;;;;;;;8.48;2.10;;;;;;;;;;4995642;28;20057;-82
2023/08/31 10:18:24;;;;;;;3.90;2.00;;;;;;;;;;4995821;28;20045;-83
2023/08/31 10:20:52;;;;;;;5.53;1.70;;;;;;;;;;4982665;28;20049;-82
2023/08/31 10:23:23;;;;;;;4.18;2.20;;;;;;;;;;5000379;28;20528;-82
2023/08/31 10:26:04;;;;;;;2.88;2.17;;;;;;;;;;4996539;28;20497;-83
2023/08/31 10:28:40;;;;;;;4.07;2.40;;;;;;;;;;4995064;28;20089;-83
2023/08/31 10:31:10;;;;;;;2.70;2.00;;;;;;;;;;5002650;28;20042;-82
2023/08/31 10:33:42;;;;;;;4.22;1.55;;;;;;;;;;5004403;28;20050;-82
2023/08/31 10:36:17;;;;;;;4.88;2.40;;;;;;;;;;4994960;28;20053;-82
2023/08/31 10:38:48;;;;;;;3.47;2.13;;;;;;;;;;4996411;28;20413;-82
2023/08/31 10:41:19;;;;;;;4.63;1.80;;;;;;;;;;4994476;28;20046;-82
2023/08/31 10:43:49;;;;;;;4.75;1.70;;;;;;;;;;4978744;28;20057;-83
2023/08/31 10:46:26;;;;;;;2.10;1.42;;;;;;;;;;4978899;28;20061;-83
2023/08/31 10:48:54;;;;;;;2.58;1.55;;;;;;;;;;4994902;28;20057;-83
2023/08/31 10:51:25;;;;;;;3.05;1.85;;;;;;;;;;4978720;28;20054;-83
2023/08/31 10:54:05;;;;;;;4.22;1.73;;;;;;;;;;5002959;28;20054;-82
2023/08/31 10:56:35;;;;;;;2.58;1.42;;;;;;;;;;4995773;28;20504;-82
2023/08/31 10:59:03;;;;;;;3.53;1.38;;;;;;;;;;5001906;28;20492;-82
2023/08/31 11:01:52;;;;;;;2.85;1.95;;;;;;;;;;4978754;28;20405;-82
2023/08/31 11:04:20;;;;;;;2.08;1.38;;;;;;;;;;4994982;28;20053;-82
2023/08/31 11:06:49;;;;;;;2.55;1.52;;;;;;;;;;4995218;28;20057;-82
2023/08/31 11:09:22;;;;;;;2.42;1.40;;;;;;;;;;4986668;28;20058;-82
2023/08/31 11:11:49;;;;;;;2.53;1.50;;;;;;;;;;4986949;28;20057;-82
2023/08/31 11:14:19;;;;;;;2.05;1.58;;;;;;;;;;4979212;28;20057;-82
2023/08/31 11:16:46;;;;;;;2.72;1.55;;;;;;;;;;4988001;28;20063;-82
2023/08/31 11:19:16;;;;;;;3.97;1.70;;;;;;;;;;4994986;28;20058;-82
2023/08/31 11:21:43;;;;;;;5.40;2.03;;;;;;;;;;4994093;28;20058;-82
2023/08/31 11:24:10;;;;;;;3.78;1.80;;;;;;;;;;4979033;28;20400;-82
2023/08/31 11:26:41;;;;;;;3.55;1.60;;;;;;;;;;4978662;28;20065;-82
2023/08/31 11:29:09;;;;;;;4.65;2.60;;;;;;;;;;4978502;28;20039;-82
2023/08/31 11:31:39;;;;;;;2.17;1.63;;;;;;;;;;4985860;28;20058;-82
2023/08/31 11:34:13;;;;;;;2.35;1.50;;;;;;;;;;4973741;28;20061;-82
2023/08/31 11:36:43;;;;;;;5.22;1.70;;;;;;;;;;4994344;28;20047;-82
2023/08/31 11:39:11;;;;;;;3.88;1.98;;;;;;;;;;4978716;28;20050;-82
2023/08/31 11:41:41;;;;;;;4.60;2.35;;;;;;;;;;5002081;28;20049;-82
2023/08/31 11:44:15;;;;;;;2.25;1.52;;;;;;;;;;4978289;28;20497;-82
2023/08/31 11:46:44;;;;;;;1.85;1.25;;;;;;;;;;5003712;28;20065;-82
2023/08/31 11:49:14;;;;;;;3.25;1.70;;;;;;;;;;4979478;28;20050;-82
2023/08/31 11:51:42;;;;;;;3.20;1.75;;;;;;;;;;4977576;28;20062;-82
2023/08/31 11:54:12;;;;;;;2.00;1.35;;;;;;;;;;4993345;28;20053;-82
2023/08/31 11:56:40;;;;;;;3.03;1.80;;;;;;;;;;4993337;28;20061;-83
2023/08/31 11:59:12;;;;;;;3.35;1.90;;;;;;;;;;4977384;28;20045;-83
2023/08/31 12:01:40;;;;;;;2.17;1.50;;;;;;;;;;4993802;28;20057;-83
2023/08/31 12:04:12;;;;;;;5.05;2.03;;;;;;;;;;4996279;28;20136;-83
2023/08/31 12:06:41;;;;;;;3.03;1.75;;;;;;;;;;4972863;28;20065;-82
2023/08/31 12:09:09;;;;;;;5.85;2.65;;;;;;;;;;4978958;28;20042;-82
2023/08/31 12:11:39;;;;;;;3.95;1.52;;;;;;;;;;4978985;28;20130;-82
2023/08/31 12:14:22;;;;;;;2.33;1.73;;;;;;;;;;4971313;28;20049;-82
2023/08/31 12:17:02;;;;;;;3.00;1.58;;;;;;;;;;4994905;28;20050;-82
2023/08/31 12:19:30;;;;;;;4.40;1.95;;;;;;;;;;4978129;28;20130;-83
2023/08/31 12:21:58;;;;;;;2.70;1.40;;;;;;;;;;4995517;28;20390;-83
2023/08/31 12:24:25;;;;;;;2.53;2.03;;;;;;;;;;4993879;28;20061;-83
2023/08/31 12:26:54;;;;;;;3.30;1.70;;;;;;;;;;4986633;28;20062;-83
2023/08/31 12:29:23;;;;;;;8.73;2.92;;;;;;;;;;4960488;28;20043;-83
2023/08/31 12:31:51;;;;;;;3.60;2.58;;;;;;;;;;4988138;28;20061;-83
2023/08/31 12:34:18;;;;;;;3.47;1.85;;;;;;;;;;4995266;28;20053;-83
2023/08/31 12:36:46;;;;;;;5.03;2.70;;;;;;;;;;4978800;28;20069;-83
2023/08/31 12:39:13;;;;;;;3.58;1.92;;;;;;;;;;4990912;28;20048;-83
2023/08/31 12:41:41;;;;;;;3.35;2.30;;;;;;;;;;4999234;28;20057;-83
2023/08/31 12:44:08;;;;;;;6.25;2.42;;;;;;;;;;4977858;28;20061;-83
2023/08/31 12:46:39;;;;;;;3.83;2.55;;;;;;;;;;5002073;28;20060;-83
2023/08/31 12:49:09;;;;;;;3.08;2.10;;;;;;;;;;4977649;28;20050;-83
2023/08/31 12:51:39;;;;;;;3.35;1.73;;;;;;;;;;4994951;28;20061;-83
2023/08/31 12:54:10;;;;;;;4.47;2.13;;;;;;;;;;4979002;28;20057;-83
2023/08/31 12:56:37;;;;;;;5.55;2.55;;;;;;;;;;4978926;28;20073;-83
2023/08/31 12:59:05;;;;;;;1.95;1.65;;;;;;;;;;4990720;28;20046;-83
2023/08/31 13:01:33;;;;;;;5.05;1.75;;;;;;;;;;4974161;28;20054;-83
2023/08/31 13:04:02;;;;;;;4.88;2.80;;;;;;;;;;4978333;28;20604;-83
2023/08/31 13:06:30;;;;;;;4.32;1.98;;;;;;;;;;4994300;28;20051;-83
2023/08/31 13:08:59;;;;;;;4.82;2.40;;;;;;;;;;4978262;28;20058;-83
2023/08/31 13:11:29;;;;;;;3.45;2.45;;;;;;;;;;4994754;28;20396;-83
2023/08/31 13:13:58;;;;;;;4.13;2.10;;;;;;;;;;4995274;28;20061;-83
2023/08/31 13:16:26;;;;;;;4.10;2.00;;;;;;;;;;4979283;28;20054;-83
2023/08/31 13:18:56;;;;;;;2.72;2.33;;;;;;;;;;4992608;28;20425;-83
2023/08/31 13:21:28;;;;;;;3.85;1.92;;;;;;;;;;4997804;28;20061;-83
2023/08/31 13:23:57;;;;;;;6.18;2.15;;;;;;;;;;4987364;28;20065;-83
2023/08/31 13:26:25;;;;;;;3.08;2.13;;;;;;;;;;4994414;28;20077;-83
2023/08/31 13:28:52;;;;;;;2.55;1.60;;;;;;;;;;4994351;28;20046;-83
2023/08/31 13:31:20;;;;;;;2.80;2.00;;;;;;;;;;4978470;28;20084;-83
2023/08/31 13:33:52;;;;;;;5.77;2.50;;;;;;;;;;5002660;28;20065;-83
2023/08/31 13:36:21;;;;;;;3.70;2.20;;;;;;;;;;4978099;28;20058;-83
2023/08/31 13:38:52;;;;;;;5.70;1.73;;;;;;;;;;4978141;28;20517;-83
2023/08/31 13:41:19;;;;;;;4.22;1.60;;;;;;;;;;4975217;28;20050;-82
2023/08/31 13:43:47;;;;;;;7.70;1.88;;;;;;;;;;4992380;28;20065;-82
2023/08/31 13:46:16;;;;;;;3.42;1.83;;;;;;;;;;5003341;28;20055;-82
2023/08/31 13:48:43;;;;;;;5.72;2.38;;;;;;;;;;5003274;28;20509;-82
2023/08/31 13:51:11;;;;;;;5.60;1.83;;;;;;;;;;4978137;28;20061;-82
2023/08/31 13:53:38;;;;;;;4.70;1.95;;;;;;;;;;4994862;28;20061;-82
2023/08/31 13:56:09;;;;;;;5.80;2.10;;;;;;;;;;4994965;28;20070;-82
2023/08/31 13:58:41;;;;;;;5.03;2.05;;;;;;;;;;4986076;28;20062;-82
2023/08/31 14:01:09;;;;;;;2.45;1.88;;;;;;;;;;5003918;28;20061;-82
2023/08/31 14:03:36;;;;;;;2.47;1.88;;;;;;;;;;4986523;28;20058;-82
2023/08/31 14:06:04;;;;;;;4.07;2.25;;;;;;;;;;4995519;28;20409;-82
2023/08/31 14:08:34;;;;;;;5.95;2.08;;;;;;;;;;4970788;28;20437;-82
2023/08/31 14:11:01;;;;;;;2.13;1.60;;;;;;;;;;4979268;28;20046;-82
2023/08/31 14:13:30;;;;;;;5.88;2.03;;;;;;;;;;4995348;28;20046;-82
2023/08/31 14:15:58;;;;;;;4.78;2.20;;;;;;;;;;4977235;28;20054;-82
2023/08/31 14:18:26;;;;;;;2.47;1.75;;;;;;;;;;4995332;28;20049;-82
2023/08/31 14:20:53;;;;;;;5.43;2.28;;;;;;;;;;4970230;28;20358;-83
2023/08/31 14:23:20;;;;;;;6.07;2.80;;;;;;;;;;4990592;28;20485;-83
2023/08/31 14:25:47;;;;;;;4.88;1.80;;;;;;;;;;4972433;28;20105;-83
2023/08/31 14:28:15;;;;;;;7.15;2.67;;;;;;;;;;4988117;28;20046;-82
2023/08/31 14:30:48;;;;;;;2.78;2.15;;;;;;;;;;5003580;28;20121;-83
2023/08/31 14:33:15;;;;;;;3.90;1.95;;;;;;;;;;5004583;28;20046;-82
2023/08/31 14:35:42;;;;;;;5.18;2.08;;;;;;;;;;5004794;28;20065;-83
2023/08/31 14:38:12;;;;;;;4.20;1.90;;;;;;;;;;4992704;28;20057;-83
2023/08/31 14:40:41;;;;;;;4.57;1.95;;;;;;;;;;4974775;28;20046;-83
2023/08/31 14:43:08;;;;;;;3.15;2.15;;;;;;;;;;4976618;28;20058;-83
2023/08/31 14:45:38;;;;;;;4.60;2.15;;;;;;;;;;4975179;28;20051;-82
2023/08/31 14:48:08;;;;;;;5.82;2.17;;;;;;;;;;4996469;28;20058;-82
2023/08/31 14:50:35;;;;;;;7.35;2.38;;;;;;;;;;4994922;28;20046;-83
2023/08/31 14:53:02;;;;;;;6.30;2.40;;;;;;;;;;4977085;28;20054;-83
2023/08/31 14:55:29;;;;;;;2.70;1.80;;;;;;;;;;4992044;28;20039;-83